sensor_id;sensor_type;location;lat;lon;timestamp;pressure;altitude;pressure_sealevel;temperature;humidity
78123;BME280;67376;44.802;10.332;2023-08-06T00:01:53;99969.13;;;27.97;42.39
78123;BME280;67376;44.802;10.332;2023-08-06T00:04:19;99970.25;;;27.96;42.45
78123;BME280;67376;44.802;10.332;2023-08-06T00:06:44;99960.38;;;27.95;42.33
78123;BME280;67376;44.802;10.332;2023-08-06T00:09:09;99967.50;;;27.96;42.61
78123;BME280;67376;44.802;10.332;2023-08-06T00:11:35;99971.34;;;27.95;42.55
78123;BME280;67376;44.802;10.332;2023-08-06T00:14:00;99961.50;;;27.94;42.58
78123;BME280;67376;44.802;10.332;2023-08-06T00:16:25;99963.44;;;27.93;42.59
78123;BME280;67376;44.802;10.332;2023-08-06T00:18:50;99962.63;;;27.93;42.62
78123;BME280;67376;44.802;10.332;2023-08-06T00:21:16;99963.44;;;27.93;42.63
78123;BME280;67376;44.802;10.332;2023-08-06T00:23:41;99971.66;;;27.93;42.68
78123;BME280;67376;44.802;10.332;2023-08-06T00:26:06;99966.16;;;27.93;42.93
78123;BME280;67376;44.802;10.332;2023-08-06T00:28:32;99968.91;;;27.93;42.23
78123;BME280;67376;44.802;10.332;2023-08-06T00:30:57;99971.66;;;27.93;42.48
78123;BME280;67376;44.802;10.332;2023-08-06T00:33:23;99968.09;;;27.93;42.53
78123;BME280;67376;44.802;10.332;2023-08-06T00:35:48;99963.44;;;27.93;42.54
78123;BME280;67376;44.802;10.332;2023-08-06T00:38:13;99959.88;;;27.93;42.58
78123;BME280;67376;44.802;10.332;2023-08-06T00:40:39;99960.69;;;27.93;43.04
78123;BME280;67376;44.802;10.332;2023-08-06T00:43:04;99957.13;;;27.93;42.52
78123;BME280;67376;44.802;10.332;2023-08-06T00:45:29;99959.88;;;27.93;42.52
78123;BME280;67376;44.802;10.332;2023-08-06T00:47:55;99953.88;;;27.91;42.74
78123;BME280;67376;44.802;10.332;2023-08-06T00:50:20;99950.00;;;27.92;42.61
78123;BME280;67376;44.802;10.332;2023-08-06T00:52:47;99951.13;;;27.91;42.76
78123;BME280;67376;44.802;10.332;2023-08-06T00:55:13;99949.19;;;27.91;42.53
78123;BME280;67376;44.802;10.332;2023-08-06T00:57:38;99950.00;;;27.92;42.57
78123;BME280;67376;44.802;10.332;2023-08-06T01:00:03;99953.88;;;27.91;42.11
78123;BME280;67376;44.802;10.332;2023-08-06T01:02:29;99948.38;;;27.91;42.67
78123;BME280;67376;44.802;10.332;2023-08-06T01:04:54;99943.19;;;27.89;42.64
78123;BME280;67376;44.802;10.332;2023-08-06T01:07:30;99942.09;;;27.90;42.99
78123;BME280;67376;44.802;10.332;2023-08-06T01:12:47;99946.75;;;27.90;42.85
78123;BME280;67376;44.802;10.332;2023-08-06T01:15:18;99948.69;;;27.89;42.54
78123;BME280;67376;44.802;10.332;2023-08-06T01:17:44;99950.63;;;27.89;43.00
78123;BME280;67376;44.802;10.332;2023-08-06T01:20:10;99953.38;;;27.89;42.82
78123;BME280;67376;44.802;10.332;2023-08-06T01:22:35;99949.81;;;27.88;42.79
78123;BME280;67376;44.802;10.332;2023-08-06T01:25:00;99938.84;;;27.88;42.71
78123;BME280;67376;44.802;10.332;2023-08-06T01:30:00;99938.03;;;27.88;42.35
78123;BME280;67376;44.802;10.332;2023-08-06T01:32:26;99942.69;;;27.87;42.68
78123;BME280;67376;44.802;10.332;2023-08-06T01:34:54;99936.91;;;27.89;42.69
78123;BME280;67376;44.802;10.332;2023-08-06T01:37:20;99942.41;;;27.89;42.92
78123;BME280;67376;44.802;10.332;2023-08-06T01:39:45;99928.97;;;27.87;42.57
78123;BME280;67376;44.802;10.332;2023-08-06T01:42:11;99921.56;;;27.88;42.76
78123;BME280;67376;44.802;10.332;2023-08-06T01:44:36;99921.06;;;27.86;42.62
78123;BME280;67376;44.802;10.332;2023-08-06T01:47:01;99919.94;;;27.87;42.59
78123;BME280;67376;44.802;10.332;2023-08-06T01:49:26;99922.97;;;27.85;42.80
78123;BME280;67376;44.802;10.332;2023-08-06T01:51:52;99925.72;;;27.85;42.77
78123;BME280;67376;44.802;10.332;2023-08-06T01:54:17;99921.88;;;27.86;42.65
78123;BME280;67376;44.802;10.332;2023-08-06T01:56:42;99927.66;;;27.85;42.78
78123;BME280;67376;44.802;10.332;2023-08-06T01:59:07;99928.47;;;27.85;42.75
78123;BME280;67376;44.802;10.332;2023-08-06T02:01:33;99923.28;;;27.84;42.49
78123;BME280;67376;44.802;10.332;2023-08-06T02:03:58;99922.16;;;27.85;42.47
78123;BME280;67376;44.802;10.332;2023-08-06T02:06:23;99925.22;;;27.83;42.72
78123;BME280;67376;44.802;10.332;2023-08-06T02:08:48;99913.44;;;27.83;42.33
78123;BME280;67376;44.802;10.332;2023-08-06T02:11:14;99906.00;;;27.83;42.52
78123;BME280;67376;44.802;10.332;2023-08-06T02:13:39;99914.25;;;27.83;42.82
78123;BME280;67376;44.802;10.332;2023-08-06T02:16:06;99909.88;;;27.82;42.48
78123;BME280;67376;44.802;10.332;2023-08-06T02:18:32;99910.69;;;27.83;42.80
78123;BME280;67376;44.802;10.332;2023-08-06T02:20:58;99905.19;;;27.83;42.77
78123;BME280;67376;44.802;10.332;2023-08-06T02:23:23;99901.34;;;27.84;42.91
78123;BME280;67376;44.802;10.332;2023-08-06T02:25:56;99896.16;;;27.82;43.23
78123;BME280;67376;44.802;10.332;2023-08-06T02:28:21;99901.66;;;27.82;42.79
78123;BME280;67376;44.802;10.332;2023-08-06T02:30:50;99892.59;;;27.82;43.23
78123;BME280;67376;44.802;10.332;2023-08-06T02:33:15;99906.31;;;27.82;42.96
78123;BME280;67376;44.802;10.332;2023-08-06T02:35:40;99911.00;;;27.81;42.84
78123;BME280;67376;44.802;10.332;2023-08-06T02:38:06;99906.31;;;27.82;43.01
78123;BME280;67376;44.802;10.332;2023-08-06T02:40:31;99907.44;;;27.81;42.38
78123;BME280;67376;44.802;10.332;2023-08-06T02:42:56;99903.56;;;27.82;42.56
78123;BME280;67376;44.802;10.332;2023-08-06T02:45:21;99903.88;;;27.80;42.67
78123;BME280;67376;44.802;10.332;2023-08-06T02:47:47;99902.75;;;27.81;42.63
78123;BME280;67376;44.802;10.332;2023-08-06T02:50:12;99905.50;;;27.81;42.84
78123;BME280;67376;44.802;10.332;2023-08-06T02:55:21;99900.31;;;27.80;43.03
78123;BME280;67376;44.802;10.332;2023-08-06T02:57:46;99890.16;;;27.80;42.91
78123;BME280;67376;44.802;10.332;2023-08-06T03:00:12;99884.16;;;27.78;42.66
78123;BME280;67376;44.802;10.332;2023-08-06T03:02:37;99884.69;;;27.80;42.87
78123;BME280;67376;44.802;10.332;2023-08-06T03:05:03;99876.44;;;27.80;42.72
78123;BME280;67376;44.802;10.332;2023-08-06T03:07:28;99877.88;;;27.78;42.93
78123;BME280;67376;44.802;10.332;2023-08-06T03:09:54;99874.31;;;27.77;42.59
78123;BME280;67376;44.802;10.332;2023-08-06T03:12:19;99871.28;;;27.79;42.75
78123;BME280;67376;44.802;10.332;2023-08-06T03:14:44;99870.47;;;27.78;42.99
78123;BME280;67376;44.802;10.332;2023-08-06T03:17:09;99873.19;;;27.78;42.63
78123;BME280;67376;44.802;10.332;2023-08-06T03:19:35;99884.97;;;27.79;42.71
78123;BME280;67376;44.802;10.332;2023-08-06T03:22:00;99891.28;;;27.79;42.81
78123;BME280;67376;44.802;10.332;2023-08-06T03:24:25;99886.09;;;27.78;42.72
78123;BME280;67376;44.802;10.332;2023-08-06T03:26:50;99895.44;;;27.77;42.67
78123;BME280;67376;44.802;10.332;2023-08-06T03:29:16;99903.69;;;27.77;42.63
78123;BME280;67376;44.802;10.332;2023-08-06T03:31:41;99899.81;;;27.78;42.84
78123;BME280;67376;44.802;10.332;2023-08-06T03:34:06;99900.94;;;27.77;42.85
78123;BME280;67376;44.802;10.332;2023-08-06T03:36:31;99897.06;;;27.78;42.98
78123;BME280;67376;44.802;10.332;2023-08-06T03:38:57;99892.72;;;27.77;42.65
78123;BME280;67376;44.802;10.332;2023-08-06T03:41:22;99896.56;;;27.76;42.75
78123;BME280;67376;44.802;10.332;2023-08-06T03:43:47;99891.91;;;27.76;43.27
78123;BME280;67376;44.802;10.332;2023-08-06T03:46:12;99894.63;;;27.76;42.62
78123;BME280;67376;44.802;10.332;2023-08-06T03:48:38;99886.41;;;27.76;42.38
78123;BME280;67376;44.802;10.332;2023-08-06T03:51:03;99879.28;;;27.75;42.78
78123;BME280;67376;44.802;10.332;2023-08-06T03:53:28;99885.91;;;27.74;42.70
78123;BME280;67376;44.802;10.332;2023-08-06T03:55:53;99879.28;;;27.75;42.70
78123;BME280;67376;44.802;10.332;2023-08-06T03:58:20;99886.41;;;27.76;42.97
78123;BME280;67376;44.802;10.332;2023-08-06T04:00:46;99874.13;;;27.74;42.77
78123;BME280;67376;44.802;10.332;2023-08-06T04:03:11;99872.19;;;27.74;42.76
78123;BME280;67376;44.802;10.332;2023-08-06T04:05:36;99876.84;;;27.74;42.67
78123;BME280;67376;44.802;10.332;2023-08-06T04:08:01;99883.50;;;27.73;42.95
78123;BME280;67376;44.802;10.332;2023-08-06T04:10:27;99885.09;;;27.74;42.84
78123;BME280;67376;44.802;10.332;2023-08-06T04:12:52;99890.56;;;27.74;42.70
78123;BME280;67376;44.802;10.332;2023-08-06T04:15:17;99892.50;;;27.73;42.77
78123;BME280;67376;44.802;10.332;2023-08-06T04:17:42;99883.50;;;27.73;42.63
78123;BME280;67376;44.802;10.332;2023-08-06T04:20:08;99891.72;;;27.73;42.64
78123;BME280;67376;44.802;10.332;2023-08-06T04:22:33;99893.66;;;27.72;42.74
78123;BME280;67376;44.802;10.332;2023-08-06T04:24:58;99878.31;;;27.71;42.92
78123;BME280;67376;44.802;10.332;2023-08-06T04:27:24;99877.50;;;27.71;42.63
78123;BME280;67376;44.802;10.332;2023-08-06T04:29:49;99876.69;;;27.70;43.04
78123;BME280;67376;44.802;10.332;2023-08-06T04:32:14;99878.31;;;27.71;42.79
78123;BME280;67376;44.802;10.332;2023-08-06T04:34:39;99878.31;;;27.71;42.74
78123;BME280;67376;44.802;10.332;2023-08-06T04:37:05;99883.28;;;27.69;42.74
78123;BME280;67376;44.802;10.332;2023-08-06T04:39:30;99876.69;;;27.70;42.72
78123;BME280;67376;44.802;10.332;2023-08-06T04:41:55;99874.75;;;27.71;42.96
78123;BME280;67376;44.802;10.332;2023-08-06T04:44:22;99873.94;;;27.70;42.75
78123;BME280;67376;44.802;10.332;2023-08-06T04:46:47;99875.06;;;27.69;43.00
78123;BME280;67376;44.802;10.332;2023-08-06T04:49:12;99864.09;;;27.69;42.80
78123;BME280;67376;44.802;10.332;2023-08-06T04:51:37;99858.91;;;27.68;42.85
78123;BME280;67376;44.802;10.332;2023-08-06T04:54:03;99858.09;;;27.67;42.96
78123;BME280;67376;44.802;10.332;2023-08-06T04:56:29;99864.41;;;27.68;42.67
78123;BME280;67376;44.802;10.332;2023-08-06T04:58:54;99861.66;;;27.68;42.71
78123;BME280;67376;44.802;10.332;2023-08-06T05:01:19;99863.28;;;27.69;42.92
78123;BME280;67376;44.802;10.332;2023-08-06T05:03:44;99862.47;;;27.68;42.92
78123;BME280;67376;44.802;10.332;2023-08-06T05:06:10;99862.47;;;27.68;42.77
78123;BME280;67376;44.802;10.332;2023-08-06T05:08:35;99866.84;;;27.69;42.77
78123;BME280;67376;44.802;10.332;2023-08-06T05:11:01;99871.50;;;27.69;42.71
78123;BME280;67376;44.802;10.332;2023-08-06T05:13:26;99868.25;;;27.67;42.73
78123;BME280;67376;44.802;10.332;2023-08-06T05:15:53;99868.25;;;27.67;42.71
78123;BME280;67376;44.802;10.332;2023-08-06T05:18:18;99870.19;;;27.66;43.01
78123;BME280;67376;44.802;10.332;2023-08-06T05:20:43;99863.06;;;27.65;42.73
78123;BME280;67376;44.802;10.332;2023-08-06T05:23:09;99868.56;;;27.65;42.76
78123;BME280;67376;44.802;10.332;2023-08-06T05:25:34;99859.53;;;27.65;42.87
78123;BME280;67376;44.802;10.332;2023-08-06T05:28:00;99863.06;;;27.65;42.75
78123;BME280;67376;44.802;10.332;2023-08-06T05:30:26;99854.84;;;27.65;42.95
78123;BME280;67376;44.802;10.332;2023-08-06T05:32:51;99848.56;;;27.65;42.99
78123;BME280;67376;44.802;10.332;2023-08-06T05:35:17;99860.66;;;27.64;42.65
78123;BME280;67376;44.802;10.332;2023-08-06T05:37:42;99855.66;;;27.66;42.53
78123;BME280;67376;44.802;10.332;2023-08-06T05:40:07;99864.69;;;27.66;42.79
78123;BME280;67376;44.802;10.332;2023-08-06T05:42:33;99863.06;;;27.65;42.55
78123;BME280;67376;44.802;10.332;2023-08-06T05:44:58;99872.44;;;27.64;42.98
78123;BME280;67376;44.802;10.332;2023-08-06T05:47:23;99867.75;;;27.65;42.54
78123;BME280;67376;44.802;10.332;2023-08-06T05:49:48;99865.31;;;27.63;42.71
78123;BME280;67376;44.802;10.332;2023-08-06T05:52:14;99868.88;;;27.64;42.47
78123;BME280;67376;44.802;10.332;2023-08-06T05:54:39;99874.34;;;27.64;42.46
78123;BME280;67376;44.802;10.332;2023-08-06T05:57:05;99871.63;;;27.64;42.40
78123;BME280;67376;44.802;10.332;2023-08-06T05:59:31;99878.22;;;27.63;42.61
78123;BME280;67376;44.802;10.332;2023-08-06T06:01:56;99883.69;;;27.63;42.37
78123;BME280;67376;44.802;10.332;2023-08-06T06:04:21;99878.22;;;27.63;42.36
78123;BME280;67376;44.802;10.332;2023-08-06T06:06:46;99875.47;;;27.63;42.55
78123;BME280;67376;44.802;10.332;2023-08-06T06:09:12;99884.00;;;27.61;42.69
78123;BME280;67376;44.802;10.332;2023-08-06T06:11:37;99889.50;;;27.61;42.49
78123;BME280;67376;44.802;10.332;2023-08-06T06:14:02;99893.03;;;27.61;42.78
78123;BME280;67376;44.802;10.332;2023-08-06T06:16:27;99892.22;;;27.61;42.51
78123;BME280;67376;44.802;10.332;2023-08-06T06:18:53;99901.28;;;27.61;42.52
78123;BME280;67376;44.802;10.332;2023-08-06T06:21:19;99903.19;;;27.61;42.21
78123;BME280;67376;44.802;10.332;2023-08-06T06:23:45;99905.94;;;27.61;42.38
78123;BME280;67376;44.802;10.332;2023-08-06T06:26:10;99912.53;;;27.60;42.48
78123;BME280;67376;44.802;10.332;2023-08-06T06:28:35;99916.09;;;27.60;42.43
78123;BME280;67376;44.802;10.332;2023-08-06T06:31:01;99919.16;;;27.59;42.34
78123;BME280;67376;44.802;10.332;2023-08-06T06:33:26;99918.03;;;27.60;42.70
78123;BME280;67376;44.802;10.332;2023-08-06T06:35:52;99918.84;;;27.60;42.39
78123;BME280;67376;44.802;10.332;2023-08-06T06:38:17;99920.78;;;27.60;42.68
78123;BME280;67376;44.802;10.332;2023-08-06T06:40:42;99922.72;;;27.59;42.48
78123;BME280;67376;44.802;10.332;2023-08-06T06:43:07;99929.00;;;27.60;42.52
78123;BME280;67376;44.802;10.332;2023-08-06T06:45:32;99926.25;;;27.60;42.67
78123;BME280;67376;44.802;10.332;2023-08-06T06:47:58;99927.66;;;27.57;42.46
78123;BME280;67376;44.802;10.332;2023-08-06T06:50:23;99928.47;;;27.58;42.44
78123;BME280;67376;44.802;10.332;2023-08-06T06:52:49;99924.63;;;27.59;42.55
78123;BME280;67376;44.802;10.332;2023-08-06T06:55:14;99919.97;;;27.59;42.57
78123;BME280;67376;44.802;10.332;2023-08-06T06:57:39;99927.38;;;27.59;42.59
78123;BME280;67376;44.802;10.332;2023-08-06T07:00:05;99923.78;;;27.58;42.71
78123;BME280;67376;44.802;10.332;2023-08-06T07:02:30;99925.44;;;27.59;42.67
78123;BME280;67376;44.802;10.332;2023-08-06T07:04:55;99921.88;;;27.59;42.74
78123;BME280;67376;44.802;10.332;2023-08-06T07:07:20;99925.72;;;27.58;42.58
78123;BME280;67376;44.802;10.332;2023-08-06T07:09:46;99935.88;;;27.57;42.52
78123;BME280;67376;44.802;10.332;2023-08-06T07:12:11;99928.47;;;27.58;42.65
78123;BME280;67376;44.802;10.332;2023-08-06T07:14:36;99922.97;;;27.58;42.91
78123;BME280;67376;44.802;10.332;2023-08-06T07:17:01;99927.66;;;27.57;42.87
78123;BME280;67376;44.802;10.332;2023-08-06T07:19:27;99925.72;;;27.58;42.83
78123;BME280;67376;44.802;10.332;2023-08-06T07:21:52;99926.53;;;27.58;42.71
78123;BME280;67376;44.802;10.332;2023-08-06T07:24:17;99920.22;;;27.58;42.66
78123;BME280;67376;44.802;10.332;2023-08-06T07:26:43;99924.91;;;27.57;42.80
78123;BME280;67376;44.802;10.332;2023-08-06T07:29:08;99926.84;;;27.57;42.82
78123;BME280;67376;44.802;10.332;2023-08-06T07:31:33;99931.19;;;27.58;42.69
78123;BME280;67376;44.802;10.332;2023-08-06T07:33:58;99926.84;;;27.57;42.85
78123;BME280;67376;44.802;10.332;2023-08-06T07:36:24;99925.72;;;27.58;42.65
78123;BME280;67376;44.802;10.332;2023-08-06T07:38:49;99927.66;;;27.57;42.62
78123;BME280;67376;44.802;10.332;2023-08-06T07:41:20;99937.81;;;27.57;42.92
78123;BME280;67376;44.802;10.332;2023-08-06T07:43:45;99944.09;;;27.57;42.85
78123;BME280;67376;44.802;10.332;2023-08-06T07:46:10;99942.47;;;27.56;42.75
78123;BME280;67376;44.802;10.332;2023-08-06T07:48:38;99940.56;;;27.57;42.72
78123;BME280;67376;44.802;10.332;2023-08-06T07:51:03;99944.41;;;27.56;42.62
78123;BME280;67376;44.802;10.332;2023-08-06T07:53:28;99941.66;;;27.56;42.67
78123;BME280;67376;44.802;10.332;2023-08-06T07:55:57;99941.66;;;27.56;42.64
78123;BME280;67376;44.802;10.332;2023-08-06T07:58:23;99938.09;;;27.55;42.51
78123;BME280;67376;44.802;10.332;2023-08-06T08:00:49;99933.44;;;27.56;42.86
78123;BME280;67376;44.802;10.332;2023-08-06T08:03:14;99934.56;;;27.55;42.95
78123;BME280;67376;44.802;10.332;2023-08-06T08:05:40;99939.22;;;27.54;42.77
78123;BME280;67376;44.802;10.332;2023-08-06T08:08:06;99934.56;;;27.55;42.83
78123;BME280;67376;44.802;10.332;2023-08-06T08:10:31;99924.41;;;27.55;42.87
78123;BME280;67376;44.802;10.332;2023-08-06T08:12:56;99929.06;;;27.55;42.79
78123;BME280;67376;44.802;10.332;2023-08-06T08:15:22;99936.19;;;27.56;42.73
78123;BME280;67376;44.802;10.332;2023-08-06T08:17:47;99932.31;;;27.57;42.91
78123;BME280;67376;44.802;10.332;2023-08-06T08:20:13;99912.63;;;27.55;42.78
78123;BME280;67376;44.802;10.332;2023-08-06T08:22:38;99927.94;;;27.56;42.62
78123;BME280;67376;44.802;10.332;2023-08-06T08:25:03;99910.69;;;27.55;42.92
78123;BME280;67376;44.802;10.332;2023-08-06T08:27:29;99914.53;;;27.54;42.77
78123;BME280;67376;44.802;10.332;2023-08-06T08:29:55;99924.41;;;27.55;42.79
78123;BME280;67376;44.802;10.332;2023-08-06T08:32:20;99923.28;;;27.56;42.96
78123;BME280;67376;44.802;10.332;2023-08-06T08:34:45;99927.94;;;27.56;42.66
78123;BME280;67376;44.802;10.332;2023-08-06T08:37:10;99929.06;;;27.55;42.71
78123;BME280;67376;44.802;10.332;2023-08-06T08:39:36;99920.03;;;27.54;42.76
78123;BME280;67376;44.802;10.332;2023-08-06T08:42:01;99912.91;;;27.53;42.77
78123;BME280;67376;44.802;10.332;2023-08-06T08:44:28;99916.16;;;27.55;42.92
78123;BME280;67376;44.802;10.332;2023-08-06T08:46:56;99912.63;;;27.55;43.03
78123;BME280;67376;44.802;10.332;2023-08-06T08:49:22;99922.78;;;27.54;42.83
78123;BME280;67376;44.802;10.332;2023-08-06T08:51:48;99916.97;;;27.56;42.87
78123;BME280;67376;44.802;10.332;2023-08-06T08:54:15;99927.94;;;27.56;42.71
78123;BME280;67376;44.802;10.332;2023-08-06T08:56:41;99922.47;;;27.56;42.61
78123;BME280;67376;44.802;10.332;2023-08-06T08:59:07;99925.50;;;27.54;43.03
78123;BME280;67376;44.802;10.332;2023-08-06T09:04:16;99934.25;;;27.56;43.01
78123;BME280;67376;44.802;10.332;2023-08-06T09:06:42;99932.63;;;27.55;42.77
78123;BME280;67376;44.802;10.332;2023-08-06T09:09:08;99946.03;;;27.57;42.85
78123;BME280;67376;44.802;10.332;2023-08-06T09:11:35;99949.59;;;27.57;43.06
78123;BME280;67376;44.802;10.332;2023-08-06T09:14:05;99949.06;;;27.55;42.75
78123;BME280;67376;44.802;10.332;2023-08-06T09:16:33;99942.47;;;27.56;42.75
78123;BME280;67376;44.802;10.332;2023-08-06T09:19:06;99951.00;;;27.55;42.83
78123;BME280;67376;44.802;10.332;2023-08-06T09:21:31;99944.41;;;27.56;43.20
78123;BME280;67376;44.802;10.332;2023-08-06T09:23:58;99946.34;;;27.55;42.95
78123;BME280;67376;44.802;10.332;2023-08-06T09:26:23;99940.84;;;27.55;42.92
78123;BME280;67376;44.802;10.332;2023-08-06T09:28:49;99938.09;;;27.55;42.95
78123;BME280;67376;44.802;10.332;2023-08-06T09:31:17;99940.03;;;27.55;42.78
78123;BME280;67376;44.802;10.332;2023-08-06T09:33:42;99945.53;;;27.55;42.32
78123;BME280;67376;44.802;10.332;2023-08-06T09:36:12;99940.03;;;27.55;42.63
78123;BME280;67376;44.802;10.332;2023-08-06T09:38:38;99936.47;;;27.54;42.80
78123;BME280;67376;44.802;10.332;2023-08-06T09:41:05;99933.75;;;27.54;42.87
78123;BME280;67376;44.802;10.332;2023-08-06T09:43:30;99941.97;;;27.54;42.77
78123;BME280;67376;44.802;10.332;2023-08-06T09:45:55;99939.22;;;27.54;42.97
78123;BME280;67376;44.802;10.332;2023-08-06T09:48:21;99932.94;;;27.54;42.83
78123;BME280;67376;44.802;10.332;2023-08-06T09:50:49;99942.78;;;27.55;43.13
78123;BME280;67376;44.802;10.332;2023-08-06T09:53:17;99951.00;;;27.55;42.83
78123;BME280;67376;44.802;10.332;2023-08-06T09:55:44;99947.44;;;27.54;42.95
78123;BME280;67376;44.802;10.332;2023-08-06T09:58:10;99941.97;;;27.54;42.97
78123;BME280;67376;44.802;10.332;2023-08-06T10:00:36;99946.63;;;27.54;42.68
78123;BME280;67376;44.802;10.332;2023-08-06T10:03:01;99955.97;;;27.53;42.83
78123;BME280;67376;44.802;10.332;2023-08-06T10:05:27;99947.44;;;27.54;42.71
78123;BME280;67376;44.802;10.332;2023-08-06T10:07:52;99946.94;;;27.52;42.80
78123;BME280;67376;44.802;10.332;2023-08-06T10:10:17;99947.75;;;27.53;42.91
78123;BME280;67376;44.802;10.332;2023-08-06T10:12:48;99939.53;;;27.53;42.58
78123;BME280;67376;44.802;10.332;2023-08-06T10:15:15;99933.22;;;27.52;42.83
78123;BME280;67376;44.802;10.332;2023-08-06T10:17:41;99937.91;;;27.52;42.96
78123;BME280;67376;44.802;10.332;2023-08-06T10:20:08;99935.97;;;27.52;42.81
78123;BME280;67376;44.802;10.332;2023-08-06T10:22:33;99935.97;;;27.52;42.75
78123;BME280;67376;44.802;10.332;2023-08-06T10:24:59;99937.59;;;27.53;42.63
78123;BME280;67376;44.802;10.332;2023-08-06T10:27:33;99936.78;;;27.53;42.70
78123;BME280;67376;44.802;10.332;2023-08-06T10:32:46;99939.03;;;27.51;42.60
78123;BME280;67376;44.802;10.332;2023-08-06T10:35:27;99935.97;;;27.52;42.75
78123;BME280;67376;44.802;10.332;2023-08-06T10:37:52;99928.56;;;27.53;42.87
78123;BME280;67376;44.802;10.332;2023-08-06T10:40:20;99926.94;;;27.52;42.63
78123;BME280;67376;44.802;10.332;2023-08-06T10:42:46;99932.72;;;27.50;43.01
78123;BME280;67376;44.802;10.332;2023-08-06T10:47:40;99932.41;;;27.52;42.53
78123;BME280;67376;44.802;10.332;2023-08-06T10:50:06;99941.75;;;27.51;42.67
78123;BME280;67376;44.802;10.332;2023-08-06T10:52:32;99936.28;;;27.51;42.51
78123;BME280;67376;44.802;10.332;2023-08-06T10:54:58;99939.03;;;27.51;42.44
78123;BME280;67376;44.802;10.332;2023-08-06T10:57:23;99933.53;;;27.51;42.48
78123;BME280;67376;44.802;10.332;2023-08-06T10:59:49;99935.75;;;27.49;42.47
78123;BME280;67376;44.802;10.332;2023-08-06T11:02:14;99939.03;;;27.51;42.35
78123;BME280;67376;44.802;10.332;2023-08-06T11:04:39;99936.56;;;27.49;41.92
78123;BME280;67376;44.802;10.332;2023-08-06T11:07:06;99931.41;;;27.48;42.43
78123;BME280;67376;44.802;10.332;2023-08-06T11:09:31;99933.84;;;27.49;42.26
78123;BME280;67376;44.802;10.332;2023-08-06T11:11:57;99926.41;;;27.50;42.25
78123;BME280;67376;44.802;10.332;2023-08-06T11:14:22;99940.13;;;27.50;42.26
78123;BME280;67376;44.802;10.332;2023-08-06T11:16:47;99933.84;;;27.49;42.05
78123;BME280;67376;44.802;10.332;2023-08-06T11:19:13;99943.19;;;27.48;42.26
78123;BME280;67376;44.802;10.332;2023-08-06T11:21:40;99931.09;;;27.49;42.25
78123;BME280;67376;44.802;10.332;2023-08-06T11:24:05;99930.59;;;27.47;42.29
78123;BME280;67376;44.802;10.332;2023-08-06T11:26:31;99919.63;;;27.47;42.08
78123;BME280;67376;44.802;10.332;2023-08-06T11:28:56;99933.03;;;27.49;42.36
78123;BME280;67376;44.802;10.332;2023-08-06T11:31:22;99917.69;;;27.48;42.34
78123;BME280;67376;44.802;10.332;2023-08-06T11:33:54;99913.00;;;27.48;42.28
78123;BME280;67376;44.802;10.332;2023-08-06T11:36:29;99910.56;;;27.47;42.03
78123;BME280;67376;44.802;10.332;2023-08-06T11:38:55;99914.13;;;27.47;41.82
78123;BME280;67376;44.802;10.332;2023-08-06T11:41:21;99907.53;;;27.48;42.11
78123;BME280;67376;44.802;10.332;2023-08-06T11:43:46;99913.81;;;27.49;41.83
78123;BME280;67376;44.802;10.332;2023-08-06T11:46:12;99912.19;;;27.48;42.02
78123;BME280;67376;44.802;10.332;2023-08-06T11:48:54;99917.69;;;27.48;42.20
78123;BME280;67376;44.802;10.332;2023-08-06T11:51:22;99911.09;;;27.49;42.09
78123;BME280;67376;44.802;10.332;2023-08-06T11:53:51;99906.72;;;27.48;41.99
78123;BME280;67376;44.802;10.332;2023-08-06T11:56:16;99903.16;;;27.47;42.14
78123;BME280;67376;44.802;10.332;2023-08-06T11:58:42;99908.94;;;27.46;41.96
78123;BME280;67376;44.802;10.332;2023-08-06T12:01:07;99891.06;;;27.48;42.06
78123;BME280;67376;44.802;10.332;2023-08-06T12:03:32;99893.00;;;27.48;42.05
78123;BME280;67376;44.802;10.332;2023-08-06T12:05:58;99893.31;;;27.46;41.79
78123;BME280;67376;44.802;10.332;2023-08-06T12:08:26;99890.56;;;27.46;42.16
78123;BME280;67376;44.802;10.332;2023-08-06T12:10:51;99896.88;;;27.47;41.93
78123;BME280;67376;44.802;10.332;2023-08-06T12:13:18;99906.72;;;27.48;41.77
78123;BME280;67376;44.802;10.332;2023-08-06T12:15:44;99900.41;;;27.47;41.74
78123;BME280;67376;44.802;10.332;2023-08-06T12:18:09;99900.41;;;27.47;41.64
78123;BME280;67376;44.802;10.332;2023-08-06T12:20:35;99891.38;;;27.47;41.81
78123;BME280;67376;44.802;10.332;2023-08-06T12:23:00;99894.13;;;27.47;41.89
78123;BME280;67376;44.802;10.332;2023-08-06T12:25:25;99885.09;;;27.46;41.98
78123;BME280;67376;44.802;10.332;2023-08-06T12:27:50;99891.38;;;27.47;41.47
78123;BME280;67376;44.802;10.332;2023-08-06T12:30:16;99885.09;;;27.46;41.39
78123;BME280;67376;44.802;10.332;2023-08-06T12:32:41;99884.28;;;27.46;41.33
78123;BME280;67376;44.802;10.332;2023-08-06T12:35:06;99876.84;;;27.46;41.76
78123;BME280;67376;44.802;10.332;2023-08-06T12:37:32;99881.53;;;27.46;41.30
78123;BME280;67376;44.802;10.332;2023-08-06T12:39:57;99881.53;;;27.46;41.50
78123;BME280;67376;44.802;10.332;2023-08-06T12:42:23;99876.06;;;27.46;41.43
78123;BME280;67376;44.802;10.332;2023-08-06T12:44:49;99877.97;;;27.45;41.52
78123;BME280;67376;44.802;10.332;2023-08-06T12:47:15;99874.13;;;27.46;41.46
78123;BME280;67376;44.802;10.332;2023-08-06T12:49:40;99868.63;;;27.46;41.72
78123;BME280;67376;44.802;10.332;2023-08-06T12:52:06;99882.34;;;27.46;41.68
78123;BME280;67376;44.802;10.332;2023-08-06T12:54:32;99876.06;;;27.46;41.61
78123;BME280;67376;44.802;10.332;2023-08-06T12:57:04;99878.78;;;27.46;41.54
78123;BME280;67376;44.802;10.332;2023-08-06T12:59:29;99880.41;;;27.47;41.80